CheckWX is a tool to help pilots better visualize weather data.  It is not intended as a substitute for an official pre-flight weather briefing.

23:14:42 UTC

DNAA TAF
Nnamdi Azikiwe International Airport
Abuja, Nigeria
TAF DNAA 201700Z 2018/2124 26010KT 9999 -TSRA BKN010 FEW019CB TEMPO 2018/2021 5000 BKN007 BECMG 2022/2101 16004KT NSW SCT008 TEMPO 2104/2107 VRB02KT 5000 BR -RA BKN007 BECMG 2107/2110 24010KT BKN010

Aug-20@
18:00 UTC

Aug-20 @ 18:00 UTC

Aug-20@
22:00 UTC

Aug-20 @ 22:00 UTC

TAF DNAA 201700Z 2018/2124 26010KT 9999 -TSRA BKN010 FEW019CB

Expired

Wind
  • 260° at 10 KTS
Conditions
Light Thunderstorm, Light Rain
Cloud Levels
  • Broken at 1,000' AGL
  • Few at 1,900' AGL

Aug-20@
18:00 UTC

Aug-20 @ 18:00 UTC

Aug-20@
21:00 UTC

Aug-20 @ 21:00 UTC

TEMPO 2018/2021 5000 BKN007

Expired

Cloud Levels
  • Broken at 700' AGL

Aug-20@
22:00 UTC

Aug-20 @ 22:00 UTC

Aug-21@
07:00 UTC

Aug-21 @ 07:00 UTC

BECMG 2022/2101 16004KT NSW SCT008

Becoming

Becoming Conditions expected by Wed, Aug 21, 2019 @ 01:00 UTC

Wind
  • 160° at 4 KTS
Conditions
No significant weather
Cloud Levels
  • Scattered at 800' AGL

Aug-21@
04:00 UTC

Aug-21 @ 04:00 UTC

Aug-21@
07:00 UTC

Aug-21 @ 07:00 UTC

TEMPO 2104/2107 VRB02KT 5000 BR -RA BKN007

Temporary

Temporary Changes expected for less than half the time period

Wind
  • Variable at 2 KTS
Conditions
Mist, Light Rain
Cloud Levels
  • Broken at 700' AGL

Aug-21@
07:00 UTC

Aug-21 @ 07:00 UTC

Aug-22@
00:00 UTC

Aug-22 @ 00:00 UTC

BECMG 2107/2110 24010KT BKN010

Becoming

Becoming Conditions expected by Wed, Aug 21, 2019 @ 10:00 UTC

Wind
  • 240° at 10 KTS
Conditions
No significant weather
Cloud Levels
  • Broken at 1,000' AGL